Terminal Aerodrome Forecast
Issued by NWS

Current Version | Previous Version | Text Only | Print | Product List | Glossary On
Versions: 1 2 3 4 5 6 7 8 9 10 11 12 13 14 15 16 17 18 19 20 21 22 23 24 25 26 27 28 29 30 31 32 33 34 35 36 37
000
FTUS43 KDLH 200500
TAFBRD
TAF
KBRD 200534Z 2006/2106 00000KT 6SM BR FEW002
      TEMPO 2006/2008 1SM BR OVC002
     FM200800 00000KT 2SM BR SCT004
      TEMPO 2008/2012 1/2SM FG OVC002
     FM201400 12004KT P6SM SCT015
     FM201600 14007KT P6SM SKC
     FM210200 11008KT P6SM OVC110=

USA.gov is the U.S. government's official web portal to all federal, state and local government web resources and services.